sensor_id;sensor_type;location;lat;lon;timestamp;temperature;humidity
24326;DHT22;12448;45.532;5.290;2023-05-19T00:01:08;13.20;94.80
24326;DHT22;12448;45.532;5.290;2023-05-19T00:03:34;13.20;94.80
24326;DHT22;12448;45.532;5.290;2023-05-19T00:06:05;13.20;94.80
24326;DHT22;12448;45.532;5.290;2023-05-19T00:08:33;13.10;94.80
24326;DHT22;12448;45.532;5.290;2023-05-19T00:11:00;13.00;94.80
24326;DHT22;12448;45.532;5.290;2023-05-19T00:13:26;13.00;95.00
24326;DHT22;12448;45.532;5.290;2023-05-19T00:15:52;12.90;95.10
24326;DHT22;12448;45.532;5.290;2023-05-19T00:18:19;13.00;95.30
24326;DHT22;12448;45.532;5.290;2023-05-19T00:20:45;12.80;95.30
24326;DHT22;12448;45.532;5.290;2023-05-19T00:23:11;12.80;95.50
24326;DHT22;12448;45.532;5.290;2023-05-19T00:25:36;12.80;95.60
24326;DHT22;12448;45.532;5.290;2023-05-19T00:28:02;13.00;95.80
24326;DHT22;12448;45.532;5.290;2023-05-19T00:30:29;12.60;95.80
24326;DHT22;12448;45.532;5.290;2023-05-19T00:32:55;12.80;96.00
24326;DHT22;12448;45.532;5.290;2023-05-19T00:35:22;12.90;96.30
24326;DHT22;12448;45.532;5.290;2023-05-19T00:37:47;12.40;96.40
24326;DHT22;12448;45.532;5.290;2023-05-19T00:40:13;12.30;96.50
24326;DHT22;12448;45.532;5.290;2023-05-19T00:42:40;12.30;96.60
24326;DHT22;12448;45.532;5.290;2023-05-19T00:45:06;12.40;96.70
24326;DHT22;12448;45.532;5.290;2023-05-19T00:47:38;12.50;96.70
24326;DHT22;12448;45.532;5.290;2023-05-19T00:50:14;12.50;96.50
24326;DHT22;12448;45.532;5.290;2023-05-19T00:52:48;12.60;96.40
24326;DHT22;12448;45.532;5.290;2023-05-19T00:55:49;12.60;96.30
24326;DHT22;12448;45.532;5.290;2023-05-19T00:58:15;12.70;96.20
24326;DHT22;12448;45.532;5.290;2023-05-19T01:00:50;13.10;96.20
24326;DHT22;12448;45.532;5.290;2023-05-19T01:03:16;12.70;96.10
24326;DHT22;12448;45.532;5.290;2023-05-19T01:05:47;12.80;96.00
24326;DHT22;12448;45.532;5.290;2023-05-19T01:08:40;12.80;95.80
24326;DHT22;12448;45.532;5.290;2023-05-19T01:11:07;12.80;95.80
24326;DHT22;12448;45.532;5.290;2023-05-19T01:13:49;12.80;95.70
24326;DHT22;12448;45.532;5.290;2023-05-19T01:16:43;12.80;95.60
24326;DHT22;12448;45.532;5.290;2023-05-19T01:19:55;12.80;95.60
24326;DHT22;12448;45.532;5.290;2023-05-19T01:29:23;12.40;95.90
24326;DHT22;12448;45.532;5.290;2023-05-19T01:32:03;12.40;96.10
24326;DHT22;12448;45.532;5.290;2023-05-19T01:34:42;12.40;96.20
24326;DHT22;12448;45.532;5.290;2023-05-19T01:37:08;12.40;96.20
24326;DHT22;12448;45.532;5.290;2023-05-19T01:39:34;12.40;96.20
24326;DHT22;12448;45.532;5.290;2023-05-19T01:42:01;12.50;96.10
24326;DHT22;12448;45.532;5.290;2023-05-19T01:44:28;12.50;96.10
24326;DHT22;12448;45.532;5.290;2023-05-19T01:46:57;12.50;96.10
24326;DHT22;12448;45.532;5.290;2023-05-19T01:49:29;12.50;96.10
24326;DHT22;12448;45.532;5.290;2023-05-19T01:52:09;12.50;96.10
24326;DHT22;12448;45.532;5.290;2023-05-19T01:54:41;12.50;96.00
24326;DHT22;12448;45.532;5.290;2023-05-19T01:57:39;12.50;96.00
24326;DHT22;12448;45.532;5.290;2023-05-19T02:06:26;12.40;95.80
24326;DHT22;12448;45.532;5.290;2023-05-19T02:09:11;12.30;95.70
24326;DHT22;12448;45.532;5.290;2023-05-19T02:11:45;12.30;96.20
24326;DHT22;12448;45.532;5.290;2023-05-19T02:14:31;12.20;96.00
24326;DHT22;12448;45.532;5.290;2023-05-19T02:17:01;12.20;96.00
24326;DHT22;12448;45.532;5.290;2023-05-19T02:19:37;12.30;96.00
24326;DHT22;12448;45.532;5.290;2023-05-19T02:22:18;12.30;95.90
24326;DHT22;12448;45.532;5.290;2023-05-19T02:25:01;12.20;95.80
24326;DHT22;12448;45.532;5.290;2023-05-19T02:27:36;12.30;95.80
24326;DHT22;12448;45.532;5.290;2023-05-19T02:30:07;12.80;95.90
24326;DHT22;12448;45.532;5.290;2023-05-19T02:32:36;12.30;95.80
24326;DHT22;12448;45.532;5.290;2023-05-19T02:35:29;12.20;95.70
24326;DHT22;12448;45.532;5.290;2023-05-19T02:38:33;12.30;95.70
24326;DHT22;12448;45.532;5.290;2023-05-19T02:41:07;12.30;95.80
24326;DHT22;12448;45.532;5.290;2023-05-19T02:43:33;12.30;95.80
24326;DHT22;12448;45.532;5.290;2023-05-19T02:46:07;12.10;95.80
24326;DHT22;12448;45.532;5.290;2023-05-19T02:48:59;12.30;95.80
24326;DHT22;12448;45.532;5.290;2023-05-19T02:52:12;12.30;95.80
24326;DHT22;12448;45.532;5.290;2023-05-19T02:58:15;12.30;95.80
24326;DHT22;12448;45.532;5.290;2023-05-19T03:00:56;12.80;95.90
24326;DHT22;12448;45.532;5.290;2023-05-19T03:03:56;12.20;95.70
24326;DHT22;12448;45.532;5.290;2023-05-19T03:06:52;12.10;95.70
24326;DHT22;12448;45.532;5.290;2023-05-19T03:09:26;12.00;95.80
24326;DHT22;12448;45.532;5.290;2023-05-19T03:12:10;12.00;96.00
24326;DHT22;12448;45.532;5.290;2023-05-19T03:15:11;11.90;96.00
24326;DHT22;12448;45.532;5.290;2023-05-19T03:17:46;11.90;96.10
24326;DHT22;12448;45.532;5.290;2023-05-19T03:20:21;11.90;96.10
24326;DHT22;12448;45.532;5.290;2023-05-19T03:23:09;11.90;96.10
24326;DHT22;12448;45.532;5.290;2023-05-19T03:25:38;11.80;95.90
24326;DHT22;12448;45.532;5.290;2023-05-19T03:28:10;11.80;96.10
24326;DHT22;12448;45.532;5.290;2023-05-19T03:30:36;11.80;96.10
24326;DHT22;12448;45.532;5.290;2023-05-19T03:36:19;11.80;96.40
24326;DHT22;12448;45.532;5.290;2023-05-19T03:42:06;11.90;96.40
24326;DHT22;12448;45.532;5.290;2023-05-19T03:45:01;11.90;96.30
24326;DHT22;12448;45.532;5.290;2023-05-19T03:47:47;11.90;96.30
24326;DHT22;12448;45.532;5.290;2023-05-19T03:50:37;12.00;96.30
24326;DHT22;12448;45.532;5.290;2023-05-19T03:56:14;12.00;96.20
24326;DHT22;12448;45.532;5.290;2023-05-19T03:58:54;12.00;96.20
24326;DHT22;12448;45.532;5.290;2023-05-19T04:09:13;12.10;96.20
24326;DHT22;12448;45.532;5.290;2023-05-19T04:12:33;12.10;96.20
24326;DHT22;12448;45.532;5.290;2023-05-19T04:15:34;12.10;96.10
24326;DHT22;12448;45.532;5.290;2023-05-19T04:18:03;12.00;96.00
24326;DHT22;12448;45.532;5.290;2023-05-19T04:20:38;12.00;96.00
24326;DHT22;12448;45.532;5.290;2023-05-19T04:23:10;12.00;96.00
24326;DHT22;12448;45.532;5.290;2023-05-19T04:25:45;12.00;96.00
24326;DHT22;12448;45.532;5.290;2023-05-19T04:28:43;11.90;96.30
24326;DHT22;12448;45.532;5.290;2023-05-19T04:31:43;11.90;95.90
24326;DHT22;12448;45.532;5.290;2023-05-19T04:40:21;11.90;95.80
24326;DHT22;12448;45.532;5.290;2023-05-19T04:42:49;11.90;95.70
24326;DHT22;12448;45.532;5.290;2023-05-19T04:45:16;11.90;95.70
24326;DHT22;12448;45.532;5.290;2023-05-19T04:47:42;11.90;95.80
24326;DHT22;12448;45.532;5.290;2023-05-19T04:50:18;11.90;95.80
24326;DHT22;12448;45.532;5.290;2023-05-19T04:52:45;11.80;95.80
24326;DHT22;12448;45.532;5.290;2023-05-19T04:55:14;11.80;95.90
24326;DHT22;12448;45.532;5.290;2023-05-19T04:57:40;11.70;95.90
24326;DHT22;12448;45.532;5.290;2023-05-19T05:00:06;11.70;96.30
24326;DHT22;12448;45.532;5.290;2023-05-19T05:02:33;11.80;96.10
24326;DHT22;12448;45.532;5.290;2023-05-19T05:04:59;12.00;96.20
24326;DHT22;12448;45.532;5.290;2023-05-19T05:07:25;12.00;96.10
24326;DHT22;12448;45.532;5.290;2023-05-19T05:09:51;11.80;96.00
24326;DHT22;12448;45.532;5.290;2023-05-19T05:12:17;11.80;96.10
24326;DHT22;12448;45.532;5.290;2023-05-19T05:14:44;11.80;96.00
24326;DHT22;12448;45.532;5.290;2023-05-19T05:17:10;11.80;96.00
24326;DHT22;12448;45.532;5.290;2023-05-19T05:19:37;11.70;96.00
24326;DHT22;12448;45.532;5.290;2023-05-19T05:22:03;11.70;96.10
24326;DHT22;12448;45.532;5.290;2023-05-19T05:24:29;11.70;96.30
24326;DHT22;12448;45.532;5.290;2023-05-19T05:26:56;11.80;96.50
24326;DHT22;12448;45.532;5.290;2023-05-19T05:29:23;11.80;96.60
24326;DHT22;12448;45.532;5.290;2023-05-19T05:31:49;12.50;96.90
24326;DHT22;12448;45.532;5.290;2023-05-19T05:34:14;12.60;96.90
24326;DHT22;12448;45.532;5.290;2023-05-19T05:36:40;12.00;96.70
24326;DHT22;12448;45.532;5.290;2023-05-19T05:39:06;12.10;96.70
24326;DHT22;12448;45.532;5.290;2023-05-19T05:44:10;12.70;96.60
24326;DHT22;12448;45.532;5.290;2023-05-19T05:46:39;12.30;96.30
24326;DHT22;12448;45.532;5.290;2023-05-19T05:49:08;12.30;96.10
24326;DHT22;12448;45.532;5.290;2023-05-19T05:51:49;11.90;96.00
24326;DHT22;12448;45.532;5.290;2023-05-19T05:54:20;12.30;96.00
24326;DHT22;12448;45.532;5.290;2023-05-19T05:57:07;12.40;96.00
24326;DHT22;12448;45.532;5.290;2023-05-19T05:59:36;12.50;95.90
24326;DHT22;12448;45.532;5.290;2023-05-19T06:02:02;12.50;95.80
24326;DHT22;12448;45.532;5.290;2023-05-19T06:04:28;12.40;95.60
24326;DHT22;12448;45.532;5.290;2023-05-19T06:06:53;12.30;95.80
24326;DHT22;12448;45.532;5.290;2023-05-19T06:09:25;12.70;96.00
24326;DHT22;12448;45.532;5.290;2023-05-19T06:11:51;12.40;96.00
24326;DHT22;12448;45.532;5.290;2023-05-19T06:14:16;12.40;96.20
24326;DHT22;12448;45.532;5.290;2023-05-19T06:16:42;12.40;96.20
24326;DHT22;12448;45.532;5.290;2023-05-19T06:19:08;12.40;96.40
24326;DHT22;12448;45.532;5.290;2023-05-19T06:21:34;12.50;96.70
24326;DHT22;12448;45.532;5.290;2023-05-19T06:23:59;12.30;96.70
24326;DHT22;12448;45.532;5.290;2023-05-19T06:26:25;12.20;96.70
24326;DHT22;12448;45.532;5.290;2023-05-19T06:29:00;12.90;96.90
24326;DHT22;12448;45.532;5.290;2023-05-19T06:35:24;12.20;96.80
24326;DHT22;12448;45.532;5.290;2023-05-19T06:38:31;12.20;97.00
24326;DHT22;12448;45.532;5.290;2023-05-19T06:41:00;12.20;97.00
24326;DHT22;12448;45.532;5.290;2023-05-19T06:43:26;12.20;97.30
24326;DHT22;12448;45.532;5.290;2023-05-19T06:45:51;12.20;96.90
24326;DHT22;12448;45.532;5.290;2023-05-19T06:48:17;12.60;96.90
24326;DHT22;12448;45.532;5.290;2023-05-19T06:50:52;12.30;96.80
24326;DHT22;12448;45.532;5.290;2023-05-19T06:53:48;12.40;96.80
24326;DHT22;12448;45.532;5.290;2023-05-19T06:56:37;12.40;97.10
24326;DHT22;12448;45.532;5.290;2023-05-19T06:59:33;12.60;96.80
24326;DHT22;12448;45.532;5.290;2023-05-19T07:05:10;12.80;96.10
24326;DHT22;12448;45.532;5.290;2023-05-19T07:08:05;12.80;95.90
24326;DHT22;12448;45.532;5.290;2023-05-19T07:10:34;12.90;95.50
24326;DHT22;12448;45.532;5.290;2023-05-19T07:12:59;13.00;95.40
24326;DHT22;12448;45.532;5.290;2023-05-19T07:15:34;13.00;95.40
24326;DHT22;12448;45.532;5.290;2023-05-19T07:21:07;13.30;95.50
24326;DHT22;12448;45.532;5.290;2023-05-19T07:23:58;13.40;95.50
24326;DHT22;12448;45.532;5.290;2023-05-19T07:29:32;13.50;94.80
24326;DHT22;12448;45.532;5.290;2023-05-19T07:32:33;13.50;94.80
24326;DHT22;12448;45.532;5.290;2023-05-19T07:35:28;13.60;94.90
24326;DHT22;12448;45.532;5.290;2023-05-19T07:38:29;13.70;94.60
24326;DHT22;12448;45.532;5.290;2023-05-19T07:41:24;13.70;94.80
24326;DHT22;12448;45.532;5.290;2023-05-19T07:44:02;13.80;94.60
24326;DHT22;12448;45.532;5.290;2023-05-19T07:46:37;13.90;94.70
24326;DHT22;12448;45.532;5.290;2023-05-19T07:49:19;13.90;94.50
24326;DHT22;12448;45.532;5.290;2023-05-19T07:52:05;14.00;94.50
24326;DHT22;12448;45.532;5.290;2023-05-19T07:54:31;14.00;94.50
24326;DHT22;12448;45.532;5.290;2023-05-19T07:56:56;14.00;94.20
24326;DHT22;12448;45.532;5.290;2023-05-19T07:59:22;14.00;93.80
24326;DHT22;12448;45.532;5.290;2023-05-19T08:01:48;14.00;94.00
24326;DHT22;12448;45.532;5.290;2023-05-19T08:04:14;14.00;93.90
24326;DHT22;12448;45.532;5.290;2023-05-19T08:06:40;14.10;93.80
24326;DHT22;12448;45.532;5.290;2023-05-19T08:09:07;14.10;93.60
24326;DHT22;12448;45.532;5.290;2023-05-19T08:11:32;14.10;93.50
24326;DHT22;12448;45.532;5.290;2023-05-19T08:13:58;14.10;93.60
24326;DHT22;12448;45.532;5.290;2023-05-19T08:16:24;14.20;93.90
24326;DHT22;12448;45.532;5.290;2023-05-19T08:18:50;14.30;93.90
24326;DHT22;12448;45.532;5.290;2023-05-19T08:21:16;14.40;93.70
24326;DHT22;12448;45.532;5.290;2023-05-19T08:23:41;14.50;93.50
24326;DHT22;12448;45.532;5.290;2023-05-19T08:26:07;14.50;93.00
24326;DHT22;12448;45.532;5.290;2023-05-19T08:28:33;14.50;93.30
24326;DHT22;12448;45.532;5.290;2023-05-19T08:30:58;14.50;93.10
24326;DHT22;12448;45.532;5.290;2023-05-19T08:33:24;14.50;93.10
24326;DHT22;12448;45.532;5.290;2023-05-19T08:35:50;14.50;93.20
24326;DHT22;12448;45.532;5.290;2023-05-19T08:38:15;14.50;93.30
24326;DHT22;12448;45.532;5.290;2023-05-19T08:40:41;14.50;93.30
24326;DHT22;12448;45.532;5.290;2023-05-19T08:43:07;14.60;93.30
24326;DHT22;12448;45.532;5.290;2023-05-19T08:45:34;14.60;93.00
24326;DHT22;12448;45.532;5.290;2023-05-19T08:47:59;14.70;92.90
24326;DHT22;12448;45.532;5.290;2023-05-19T08:50:29;14.70;93.20
24326;DHT22;12448;45.532;5.290;2023-05-19T08:53:03;14.60;93.10
24326;DHT22;12448;45.532;5.290;2023-05-19T08:55:46;14.50;93.20
24326;DHT22;12448;45.532;5.290;2023-05-19T08:58:13;14.50;93.20
24326;DHT22;12448;45.532;5.290;2023-05-19T09:00:41;14.50;93.10
24326;DHT22;12448;45.532;5.290;2023-05-19T09:03:06;14.40;92.70
24326;DHT22;12448;45.532;5.290;2023-05-19T09:05:32;14.40;92.70
24326;DHT22;12448;45.532;5.290;2023-05-19T09:08:05;14.40;92.90
24326;DHT22;12448;45.532;5.290;2023-05-19T09:10:40;14.40;92.30
24326;DHT22;12448;45.532;5.290;2023-05-19T09:13:32;14.40;92.60
24326;DHT22;12448;45.532;5.290;2023-05-19T09:15:58;14.30;92.70
24326;DHT22;12448;45.532;5.290;2023-05-19T09:18:24;14.40;92.80
24326;DHT22;12448;45.532;5.290;2023-05-19T09:20:55;14.40;92.70
24326;DHT22;12448;45.532;5.290;2023-05-19T09:23:29;14.40;92.60
24326;DHT22;12448;45.532;5.290;2023-05-19T09:26:03;14.40;93.20
24326;DHT22;12448;45.532;5.290;2023-05-19T09:28:34;14.40;93.40
24326;DHT22;12448;45.532;5.290;2023-05-19T09:31:08;14.60;93.50
24326;DHT22;12448;45.532;5.290;2023-05-19T09:33:38;14.70;93.20
24326;DHT22;12448;45.532;5.290;2023-05-19T09:36:05;14.80;93.00
24326;DHT22;12448;45.532;5.290;2023-05-19T09:38:34;14.90;92.60
24326;DHT22;12448;45.532;5.290;2023-05-19T09:41:00;14.90;92.50
24326;DHT22;12448;45.532;5.290;2023-05-19T09:43:29;14.90;92.10
24326;DHT22;12448;45.532;5.290;2023-05-19T09:46:03;15.00;91.80
24326;DHT22;12448;45.532;5.290;2023-05-19T09:48:29;15.00;91.90
24326;DHT22;12448;45.532;5.290;2023-05-19T09:50:55;15.20;92.20
24326;DHT22;12448;45.532;5.290;2023-05-19T09:53:23;15.30;92.30
24326;DHT22;12448;45.532;5.290;2023-05-19T09:55:50;15.60;92.20
24326;DHT22;12448;45.532;5.290;2023-05-19T09:58:17;15.70;92.00
24326;DHT22;12448;45.532;5.290;2023-05-19T10:00:44;15.70;90.60
24326;DHT22;12448;45.532;5.290;2023-05-19T10:03:11;15.80;91.10
24326;DHT22;12448;45.532;5.290;2023-05-19T10:05:37;15.80;90.70
24326;DHT22;12448;45.532;5.290;2023-05-19T10:08:04;15.80;91.00
24326;DHT22;12448;45.532;5.290;2023-05-19T10:10:32;15.90;90.90
24326;DHT22;12448;45.532;5.290;2023-05-19T10:12:58;15.90;90.30
24326;DHT22;12448;45.532;5.290;2023-05-19T10:15:25;15.80;90.20
24326;DHT22;12448;45.532;5.290;2023-05-19T10:17:51;15.80;90.30
24326;DHT22;12448;45.532;5.290;2023-05-19T10:20:17;15.80;90.00
24326;DHT22;12448;45.532;5.290;2023-05-19T10:22:44;15.80;90.50
24326;DHT22;12448;45.532;5.290;2023-05-19T10:25:11;15.90;90.80
24326;DHT22;12448;45.532;5.290;2023-05-19T10:27:55;16.00;90.70
24326;DHT22;12448;45.532;5.290;2023-05-19T10:30:32;15.90;90.50
24326;DHT22;12448;45.532;5.290;2023-05-19T10:33:00;15.90;89.80
24326;DHT22;12448;45.532;5.290;2023-05-19T10:43:55;16.20;90.40
24326;DHT22;12448;45.532;5.290;2023-05-19T10:46:25;16.20;90.00
24326;DHT22;12448;45.532;5.290;2023-05-19T10:48:51;16.20;89.40
24326;DHT22;12448;45.532;5.290;2023-05-19T10:51:18;16.20;89.80
24326;DHT22;12448;45.532;5.290;2023-05-19T10:53:43;16.20;89.70
24326;DHT22;12448;45.532;5.290;2023-05-19T10:56:11;16.20;89.60
24326;DHT22;12448;45.532;5.290;2023-05-19T11:01:14;16.30;89.50
24326;DHT22;12448;45.532;5.290;2023-05-19T11:03:51;16.30;89.40
24326;DHT22;12448;45.532;5.290;2023-05-19T11:08:55;16.40;89.30
24326;DHT22;12448;45.532;5.290;2023-05-19T11:11:21;16.40;88.30
24326;DHT22;12448;45.532;5.290;2023-05-19T11:13:50;16.30;88.80
24326;DHT22;12448;45.532;5.290;2023-05-19T11:16:18;16.30;88.50
24326;DHT22;12448;45.532;5.290;2023-05-19T11:18:48;16.30;89.00
24326;DHT22;12448;45.532;5.290;2023-05-19T11:21:14;16.40;89.90
24326;DHT22;12448;45.532;5.290;2023-05-19T11:23:40;16.40;89.70
24326;DHT22;12448;45.532;5.290;2023-05-19T11:26:06;16.50;89.80
24326;DHT22;12448;45.532;5.290;2023-05-19T11:28:33;16.60;89.30
24326;DHT22;12448;45.532;5.290;2023-05-19T11:30:59;16.60;87.40
24326;DHT22;12448;45.532;5.290;2023-05-19T11:33:26;16.60;88.20
24326;DHT22;12448;45.532;5.290;2023-05-19T11:35:54;16.60;88.60
24326;DHT22;12448;45.532;5.290;2023-05-19T11:38:22;16.50;87.70
24326;DHT22;12448;45.532;5.290;2023-05-19T11:40:48;16.60;88.90
24326;DHT22;12448;45.532;5.290;2023-05-19T11:43:17;16.70;88.00
24326;DHT22;12448;45.532;5.290;2023-05-19T11:45:42;16.60;87.60
24326;DHT22;12448;45.532;5.290;2023-05-19T11:48:12;16.60;88.40
24326;DHT22;12448;45.532;5.290;2023-05-19T11:50:40;16.50;88.00
24326;DHT22;12448;45.532;5.290;2023-05-19T11:53:06;16.50;88.40
24326;DHT22;12448;45.532;5.290;2023-05-19T11:55:32;16.50;88.50
24326;DHT22;12448;45.532;5.290;2023-05-19T11:57:59;16.50;88.80
24326;DHT22;12448;45.532;5.290;2023-05-19T12:00:25;16.50;88.40
24326;DHT22;12448;45.532;5.290;2023-05-19T12:02:51;16.60;88.30
24326;DHT22;12448;45.532;5.290;2023-05-19T12:05:21;16.60;87.20
24326;DHT22;12448;45.532;5.290;2023-05-19T12:07:47;16.70;87.50
24326;DHT22;12448;45.532;5.290;2023-05-19T12:10:23;16.80;88.00
24326;DHT22;12448;45.532;5.290;2023-05-19T12:12:50;16.90;87.00
24326;DHT22;12448;45.532;5.290;2023-05-19T12:15:23;17.00;87.30
24326;DHT22;12448;45.532;5.290;2023-05-19T12:17:59;17.20;86.60
24326;DHT22;12448;45.532;5.290;2023-05-19T12:20:29;17.30;84.70
24326;DHT22;12448;45.532;5.290;2023-05-19T12:23:00;17.20;85.10
24326;DHT22;12448;45.532;5.290;2023-05-19T12:25:35;17.20;85.90
24326;DHT22;12448;45.532;5.290;2023-05-19T12:28:04;17.30;84.90
24326;DHT22;12448;45.532;5.290;2023-05-19T12:30:34;17.20;84.80
24326;DHT22;12448;45.532;5.290;2023-05-19T12:33:00;17.20;84.80
24326;DHT22;12448;45.532;5.290;2023-05-19T12:35:28;17.30;85.10
24326;DHT22;12448;45.532;5.290;2023-05-19T12:37:54;17.30;84.50
24326;DHT22;12448;45.532;5.290;2023-05-19T12:40:22;17.30;84.30
24326;DHT22;12448;45.532;5.290;2023-05-19T12:42:55;17.20;84.40
24326;DHT22;12448;45.532;5.290;2023-05-19T12:45:32;17.10;85.20
24326;DHT22;12448;45.532;5.290;2023-05-19T12:48:23;17.10;86.30
24326;DHT22;12448;45.532;5.290;2023-05-19T12:50:58;17.10;85.60
24326;DHT22;12448;45.532;5.290;2023-05-19T12:53:25;17.10;85.20
24326;DHT22;12448;45.532;5.290;2023-05-19T12:55:52;17.00;85.40
24326;DHT22;12448;45.532;5.290;2023-05-19T12:58:18;17.00;85.60
24326;DHT22;12448;45.532;5.290;2023-05-19T13:00:45;16.90;85.10
24326;DHT22;12448;45.532;5.290;2023-05-19T13:03:18;16.90;85.50
24326;DHT22;12448;45.532;5.290;2023-05-19T13:05:47;16.90;86.00
24326;DHT22;12448;45.532;5.290;2023-05-19T13:08:20;17.00;86.60
24326;DHT22;12448;45.532;5.290;2023-05-19T13:10:47;17.10;86.40
24326;DHT22;12448;45.532;5.290;2023-05-19T13:13:14;17.20;86.00
24326;DHT22;12448;45.532;5.290;2023-05-19T13:15:49;17.20;85.80
24326;DHT22;12448;45.532;5.290;2023-05-19T13:18:21;17.30;84.90
24326;DHT22;12448;45.532;5.290;2023-05-19T13:21:06;17.40;84.80
24326;DHT22;12448;45.532;5.290;2023-05-19T13:23:32;17.40;84.20
24326;DHT22;12448;45.532;5.290;2023-05-19T13:25:59;17.50;83.10
24326;DHT22;12448;45.532;5.290;2023-05-19T13:28:24;17.50;82.90
24326;DHT22;12448;45.532;5.290;2023-05-19T13:30:50;17.40;82.20
24326;DHT22;12448;45.532;5.290;2023-05-19T13:33:16;17.40;82.80
24326;DHT22;12448;45.532;5.290;2023-05-19T13:35:41;17.30;83.20
24326;DHT22;12448;45.532;5.290;2023-05-19T13:38:08;17.30;83.50
24326;DHT22;12448;45.532;5.290;2023-05-19T13:40:34;17.30;83.20
24326;DHT22;12448;45.532;5.290;2023-05-19T13:43:01;17.20;84.00
24326;DHT22;12448;45.532;5.290;2023-05-19T13:45:27;17.20;83.70
24326;DHT22;12448;45.532;5.290;2023-05-19T13:47:53;17.10;83.60
24326;DHT22;12448;45.532;5.290;2023-05-19T13:50:19;17.00;84.20
24326;DHT22;12448;45.532;5.290;2023-05-19T13:52:45;16.90;84.60
24326;DHT22;12448;45.532;5.290;2023-05-19T13:55:10;16.90;84.50
24326;DHT22;12448;45.532;5.290;2023-05-19T13:57:36;16.90;84.90
24326;DHT22;12448;45.532;5.290;2023-05-19T14:00:02;16.80;85.50
24326;DHT22;12448;45.532;5.290;2023-05-19T14:02:29;16.80;85.40
24326;DHT22;12448;45.532;5.290;2023-05-19T14:04:54;16.70;85.80
24326;DHT22;12448;45.532;5.290;2023-05-19T14:07:20;16.60;85.90
24326;DHT22;12448;45.532;5.290;2023-05-19T14:09:46;16.60;86.40
24326;DHT22;12448;45.532;5.290;2023-05-19T14:12:11;16.60;86.50
24326;DHT22;12448;45.532;5.290;2023-05-19T14:14:38;16.50;86.90
24326;DHT22;12448;45.532;5.290;2023-05-19T14:17:03;16.40;85.50
24326;DHT22;12448;45.532;5.290;2023-05-19T14:19:29;16.50;86.50
24326;DHT22;12448;45.532;5.290;2023-05-19T14:21:56;16.50;86.20
24326;DHT22;12448;45.532;5.290;2023-05-19T14:24:21;16.50;86.40
24326;DHT22;12448;45.532;5.290;2023-05-19T14:26:47;16.50;86.60
24326;DHT22;12448;45.532;5.290;2023-05-19T14:29:13;16.50;86.40
24326;DHT22;12448;45.532;5.290;2023-05-19T14:31:39;16.60;86.90
24326;DHT22;12448;45.532;5.290;2023-05-19T14:34:05;16.70;87.20
24326;DHT22;12448;45.532;5.290;2023-05-19T14:36:31;16.70;86.40
24326;DHT22;12448;45.532;5.290;2023-05-19T14:38:59;16.80;85.90
24326;DHT22;12448;45.532;5.290;2023-05-19T14:41:34;16.90;86.30
24326;DHT22;12448;45.532;5.290;2023-05-19T14:44:03;16.90;86.30
24326;DHT22;12448;45.532;5.290;2023-05-19T14:46:29;16.90;85.50
24326;DHT22;12448;45.532;5.290;2023-05-19T14:48:55;16.90;85.70
24326;DHT22;12448;45.532;5.290;2023-05-19T14:51:20;17.00;86.30
24326;DHT22;12448;45.532;5.290;2023-05-19T14:53:46;16.90;85.60
24326;DHT22;12448;45.532;5.290;2023-05-19T14:56:13;16.90;86.20
24326;DHT22;12448;45.532;5.290;2023-05-19T14:58:38;16.80;85.40
24326;DHT22;12448;45.532;5.290;2023-05-19T15:01:04;16.80;85.80
24326;DHT22;12448;45.532;5.290;2023-05-19T15:03:30;16.70;85.90
24326;DHT22;12448;45.532;5.290;2023-05-19T15:05:55;16.70;86.40
24326;DHT22;12448;45.532;5.290;2023-05-19T15:08:21;16.70;86.30
24326;DHT22;12448;45.532;5.290;2023-05-19T15:10:48;16.60;86.50
24326;DHT22;12448;45.532;5.290;2023-05-19T15:13:14;16.60;86.70
24326;DHT22;12448;45.532;5.290;2023-05-19T15:15:40;16.60;87.00
24326;DHT22;12448;45.532;5.290;2023-05-19T15:18:06;16.60;85.80
24326;DHT22;12448;45.532;5.290;2023-05-19T15:21:30;16.60;86.80
24326;DHT22;12448;45.532;5.290;2023-05-19T15:23:50;16.70;87.00
24326;DHT22;12448;45.532;5.290;2023-05-19T15:26:16;16.70;87.10
24326;DHT22;12448;45.532;5.290;2023-05-19T15:28:41;16.70;86.80
24326;DHT22;12448;45.532;5.290;2023-05-19T15:31:07;16.70;87.10
24326;DHT22;12448;45.532;5.290;2023-05-19T15:33:33;16.70;86.50
24326;DHT22;12448;45.532;5.290;2023-05-19T15:35:58;16.60;86.30
24326;DHT22;12448;45.532;5.290;2023-05-19T15:38:24;16.60;86.80
24326;DHT22;12448;45.532;5.290;2023-05-19T15:40:49;16.70;87.00
24326;DHT22;12448;45.532;5.290;2023-05-19T15:43:15;16.70;87.10
24326;DHT22;12448;45.532;5.290;2023-05-19T15:45:41;16.70;87.10
24326;DHT22;12448;45.532;5.290;2023-05-19T15:48:07;16.60;87.30
24326;DHT22;12448;45.532;5.290;2023-05-19T15:50:33;16.60;87.30
24326;DHT22;12448;45.532;5.290;2023-05-19T15:52:58;16.60;87.00
24326;DHT22;12448;45.532;5.290;2023-05-19T15:55:24;16.60;87.10
24326;DHT22;12448;45.532;5.290;2023-05-19T15:57:49;16.60;87.30
24326;DHT22;12448;45.532;5.290;2023-05-19T16:00:15;16.50;87.50
24326;DHT22;12448;45.532;5.290;2023-05-19T16:02:40;16.60;87.90
24326;DHT22;12448;45.532;5.290;2023-05-19T16:05:06;16.60;88.70
24326;DHT22;12448;45.532;5.290;2023-05-19T16:07:32;16.50;89.60
24326;DHT22;12448;45.532;5.290;2023-05-19T16:09:57;16.50;89.60
24326;DHT22;12448;45.532;5.290;2023-05-19T16:12:23;16.50;89.60
24326;DHT22;12448;45.532;5.290;2023-05-19T16:14:58;16.60;89.70
24326;DHT22;12448;45.532;5.290;2023-05-19T16:17:24;16.60;89.20
24326;DHT22;12448;45.532;5.290;2023-05-19T16:19:52;16.50;90.00
24326;DHT22;12448;45.532;5.290;2023-05-19T16:22:17;16.50;90.20
24326;DHT22;12448;45.532;5.290;2023-05-19T16:24:43;16.50;90.30
24326;DHT22;12448;45.532;5.290;2023-05-19T16:27:09;16.40;90.70
24326;DHT22;12448;45.532;5.290;2023-05-19T16:29:37;16.40;90.60
24326;DHT22;12448;45.532;5.290;2023-05-19T16:32:03;16.40;90.60
24326;DHT22;12448;45.532;5.290;2023-05-19T16:34:35;16.30;90.60
24326;DHT22;12448;45.532;5.290;2023-05-19T16:37:00;16.30;90.90
24326;DHT22;12448;45.532;5.290;2023-05-19T16:39:26;16.20;91.10
24326;DHT22;12448;45.532;5.290;2023-05-19T16:41:52;16.20;91.40
24326;DHT22;12448;45.532;5.290;2023-05-19T16:44:18;16.20;91.30
24326;DHT22;12448;45.532;5.290;2023-05-19T16:46:44;16.10;91.20
24326;DHT22;12448;45.532;5.290;2023-05-19T16:49:09;16.10;91.40
24326;DHT22;12448;45.532;5.290;2023-05-19T16:51:47;16.10;91.40
24326;DHT22;12448;45.532;5.290;2023-05-19T16:54:12;16.00;91.50
24326;DHT22;12448;45.532;5.290;2023-05-19T16:56:48;15.90;91.80
24326;DHT22;12448;45.532;5.290;2023-05-19T16:59:17;15.90;92.40
24326;DHT22;12448;45.532;5.290;2023-05-19T17:01:46;15.90;92.80
24326;DHT22;12448;45.532;5.290;2023-05-19T17:04:11;15.80;93.00